createdAt,value
2023-01-01T00:02:03.708Z,16.86
2023-01-01T00:04:31.786Z,16.93
2023-01-01T00:06:58.116Z,17.01
2023-01-01T00:09:43.262Z,17.05
2023-01-01T00:12:09.695Z,16.98
2023-01-01T00:14:36.034Z,17.06
2023-01-01T00:17:02.469Z,17.05
2023-01-01T00:19:28.808Z,17.00
2023-01-01T00:21:55.319Z,17.00
2023-01-01T00:24:21.677Z,16.95
2023-01-01T00:26:48.005Z,16.95
2023-01-01T00:29:14.343Z,16.96
2023-01-01T00:31:40.718Z,16.90
2023-01-01T00:34:07.240Z,16.86
2023-01-01T00:36:33.652Z,16.79
2023-01-01T00:39:01.935Z,16.72
2023-01-01T00:41:28.276Z,16.67
2023-01-01T00:43:54.605Z,16.75
2023-01-01T00:46:21.024Z,16.76
2023-01-01T00:48:47.547Z,16.73
2023-01-01T00:51:14.175Z,16.66
2023-01-01T00:53:40.640Z,16.61
2023-01-01T00:56:07.581Z,16.48
2023-01-01T00:58:34.233Z,16.43
2023-01-01T01:01:00.730Z,16.33
2023-01-01T01:03:30.306Z,16.22
2023-01-01T01:05:59.708Z,16.15
2023-01-01T01:08:30.923Z,16.12
2023-01-01T01:11:08.875Z,16.10
2023-01-01T01:13:35.699Z,16.14
2023-01-01T01:16:08.439Z,16.16
2023-01-01T01:18:34.798Z,16.15
2023-01-01T01:21:01.159Z,16.07
2023-01-01T01:23:27.626Z,16.09
2023-01-01T01:25:54.066Z,16.16
2023-01-01T01:28:20.394Z,16.12
2023-01-01T01:30:46.787Z,16.09
2023-01-01T01:33:13.149Z,16.10
2023-01-01T01:35:39.544Z,16.13
2023-01-01T01:38:06.348Z,16.15
2023-01-01T01:40:33.305Z,16.07
2023-01-01T01:42:59.639Z,16.06
2023-01-01T01:45:32.993Z,16.10
2023-01-01T01:48:00.012Z,16.13
2023-01-01T01:50:34.046Z,16.00
2023-01-01T01:53:15.742Z,15.98
2023-01-01T01:55:48.719Z,15.87
2023-01-01T01:58:16.073Z,15.77
2023-01-01T02:00:42.449Z,15.82
2023-01-01T02:03:13.770Z,15.76
2023-01-01T02:05:41.303Z,15.74
2023-01-01T02:08:08.694Z,15.66
2023-01-01T02:10:35.130Z,15.64
2023-01-01T02:13:01.643Z,15.71
2023-01-01T02:15:34.585Z,15.58
2023-01-01T02:18:11.880Z,15.54
2023-01-01T02:21:04.359Z,15.47
2023-01-01T02:23:46.753Z,15.47
2023-01-01T02:26:19.579Z,15.47
2023-01-01T02:29:02.967Z,15.43
2023-01-01T02:31:39.794Z,15.36
2023-01-01T02:34:11.441Z,15.31
2023-01-01T02:36:46.055Z,15.32
2023-01-01T02:39:15.866Z,15.27
2023-01-01T02:41:46.803Z,15.32
2023-01-01T02:44:13.251Z,15.31
2023-01-01T02:46:39.605Z,15.22
2023-01-01T02:49:10.180Z,15.15
2023-01-01T02:52:01.025Z,15.16
2023-01-01T02:54:33.755Z,15.17
2023-01-01T02:57:10.218Z,15.13
2023-01-01T03:00:21.113Z,15.12
2023-01-01T03:03:10.031Z,15.07
2023-01-01T03:06:14.304Z,15.06
2023-01-01T03:09:03.532Z,15.05
2023-01-01T03:11:43.870Z,15.05
2023-01-01T03:14:24.740Z,15.02
2023-01-01T03:16:57.271Z,14.98
2023-01-01T03:19:28.223Z,14.97
2023-01-01T03:22:07.973Z,14.95
2023-01-01T03:24:51.423Z,14.89
2023-01-01T03:27:22.351Z,14.95
2023-01-01T03:29:52.690Z,14.94
2023-01-01T03:32:51.988Z,14.95
2023-01-01T03:35:21.118Z,14.91
2023-01-01T03:37:51.607Z,14.85
2023-01-01T03:40:21.041Z,14.84
2023-01-01T03:42:55.919Z,14.94
2023-01-01T03:45:28.274Z,14.94
2023-01-01T03:47:55.465Z,14.86
2023-01-01T03:50:28.540Z,14.89
2023-01-01T03:53:07.934Z,14.95
2023-01-01T03:55:44.065Z,14.96
2023-01-01T03:58:24.291Z,14.97
2023-01-01T04:00:57.862Z,14.94
2023-01-01T04:03:27.327Z,14.89
2023-01-01T04:05:54.417Z,14.94
2023-01-01T04:08:21.122Z,14.95
2023-01-01T04:10:53.724Z,14.92
2023-01-01T04:13:20.116Z,14.87
2023-01-01T04:15:46.516Z,14.85
2023-01-01T04:18:12.903Z,14.83
2023-01-01T04:20:39.245Z,14.77
2023-01-01T04:23:05.613Z,14.70
2023-01-01T04:25:32.459Z,14.71
2023-01-01T04:27:59.180Z,14.74
2023-01-01T04:30:26.786Z,14.80
2023-01-01T04:32:54.640Z,14.84
2023-01-01T04:35:21.032Z,14.79
2023-01-01T04:37:48.240Z,14.78
2023-01-01T04:40:15.046Z,14.81
2023-01-01T04:42:41.645Z,14.81
2023-01-01T04:45:08.627Z,14.84
2023-01-01T04:47:35.129Z,14.84
2023-01-01T04:50:01.535Z,14.85
2023-01-01T04:52:27.899Z,14.83
2023-01-01T04:54:54.245Z,14.91
2023-01-01T04:57:20.594Z,14.96
2023-01-01T04:59:46.953Z,14.94
2023-01-01T05:02:13.370Z,14.91
2023-01-01T05:04:39.861Z,14.83
2023-01-01T05:07:06.205Z,14.85
2023-01-01T05:09:32.552Z,14.84
2023-01-01T05:11:58.868Z,14.82
2023-01-01T05:14:26.248Z,14.89
2023-01-01T05:16:53.017Z,14.94
2023-01-01T05:19:19.408Z,14.89
2023-01-01T05:21:46.430Z,14.90
2023-01-01T05:24:13.212Z,14.89
2023-01-01T05:26:42.454Z,14.91
2023-01-01T05:29:15.589Z,14.93
2023-01-01T05:31:43.939Z,14.91
2023-01-01T05:34:10.441Z,14.91
2023-01-01T05:36:38.932Z,14.88
2023-01-01T05:39:07.000Z,14.91
2023-01-01T05:41:36.160Z,14.92
2023-01-01T05:44:04.992Z,14.92
2023-01-01T05:46:32.153Z,14.93
2023-01-01T05:48:58.584Z,14.92
2023-01-01T05:51:27.129Z,14.90
2023-01-01T05:53:54.925Z,14.96
2023-01-01T05:56:21.927Z,14.94
2023-01-01T05:58:48.394Z,14.94
2023-01-01T06:01:24.183Z,14.93
2023-01-01T06:03:51.456Z,14.94
2023-01-01T06:06:20.654Z,14.97
2023-01-01T06:08:54.554Z,14.86
2023-01-01T06:11:21.246Z,14.79
2023-01-01T06:13:48.413Z,14.75
2023-01-01T06:16:15.128Z,14.69
2023-01-01T06:18:41.619Z,14.64
2023-01-01T06:21:19.861Z,14.74
2023-01-01T06:23:46.469Z,14.71
2023-01-01T06:26:14.204Z,14.76
2023-01-01T06:28:41.602Z,14.79
2023-01-01T06:31:09.942Z,14.79
2023-01-01T06:33:37.363Z,14.76
2023-01-01T06:36:06.490Z,14.82
2023-01-01T06:38:34.818Z,14.84
2023-01-01T06:41:04.630Z,14.78
2023-01-01T06:43:33.142Z,14.81
2023-01-01T06:46:16.024Z,14.78
2023-01-01T06:48:42.562Z,14.84
2023-01-01T06:51:12.143Z,14.83
2023-01-01T06:53:38.603Z,14.76
2023-01-01T06:56:05.479Z,14.75
2023-01-01T06:58:32.045Z,14.78
2023-01-01T07:01:16.017Z,14.77
2023-01-01T07:03:44.031Z,14.65
2023-01-01T07:06:11.075Z,14.56
2023-01-01T07:08:37.748Z,14.51
2023-01-01T07:11:05.403Z,14.40
2023-01-01T07:13:31.799Z,14.38
2023-01-01T07:15:59.347Z,14.37
2023-01-01T07:18:28.726Z,14.37
2023-01-01T07:21:04.056Z,14.33
2023-01-01T07:23:33.473Z,14.38
2023-01-01T07:25:59.862Z,14.30
2023-01-01T07:28:27.272Z,14.41
2023-01-01T07:30:54.247Z,14.34
2023-01-01T07:33:23.200Z,14.22
2023-01-01T07:35:49.800Z,14.19
2023-01-01T07:38:16.260Z,14.07
2023-01-01T07:40:42.838Z,14.03
2023-01-01T07:43:10.141Z,13.91
2023-01-01T07:45:36.593Z,13.77
2023-01-01T07:48:03.164Z,13.65
2023-01-01T07:50:32.217Z,13.53
2023-01-01T07:52:58.910Z,13.48
2023-01-01T07:55:25.513Z,13.43
2023-01-01T07:57:51.883Z,13.40
2023-01-01T08:00:20.796Z,13.42
2023-01-01T08:02:47.696Z,13.39
2023-01-01T08:05:14.242Z,13.43
2023-01-01T08:07:40.759Z,13.39
2023-01-01T08:10:07.875Z,13.34
2023-01-01T08:12:34.310Z,13.34
2023-01-01T08:15:00.739Z,13.32
2023-01-01T08:17:27.086Z,13.27
2023-01-01T08:19:53.462Z,13.30
2023-01-01T08:22:19.828Z,13.30
2023-01-01T08:24:46.176Z,13.30
2023-01-01T08:27:14.522Z,13.40
2023-01-01T08:29:41.254Z,13.44
2023-01-01T08:32:10.171Z,13.54
2023-01-01T08:34:36.622Z,13.58
2023-01-01T08:37:03.060Z,13.59
2023-01-01T08:39:29.850Z,13.57
2023-01-01T08:41:56.201Z,13.60
2023-01-01T08:44:22.870Z,13.66
2023-01-01T08:46:49.538Z,13.62
2023-01-01T08:49:15.897Z,13.71
2023-01-01T08:51:42.228Z,13.72
2023-01-01T08:54:08.667Z,13.70
2023-01-01T08:56:37.539Z,13.75
2023-01-01T08:59:04.693Z,13.76
2023-01-01T09:01:31.279Z,13.70
2023-01-01T09:03:57.762Z,13.76
2023-01-01T09:06:24.287Z,13.76
2023-01-01T09:08:51.272Z,13.77
2023-01-01T09:11:23.601Z,13.82
2023-01-01T09:13:50.057Z,13.85
2023-01-01T09:16:16.488Z,13.86
2023-01-01T09:18:42.869Z,13.82
2023-01-01T09:21:09.290Z,13.88
2023-01-01T09:23:36.177Z,13.86
2023-01-01T09:26:04.747Z,13.85
2023-01-01T09:28:31.342Z,13.85
2023-01-01T09:30:57.878Z,13.89
2023-01-01T09:33:24.359Z,13.88
2023-01-01T09:35:50.786Z,13.90
2023-01-01T09:38:17.124Z,13.91
2023-01-01T09:41:18.342Z,13.95
2023-01-01T09:43:50.612Z,13.85
2023-01-01T09:46:17.367Z,13.89
2023-01-01T09:48:58.518Z,13.89
2023-01-01T09:51:30.242Z,13.88
2023-01-01T09:54:06.507Z,13.91
2023-01-01T09:56:35.761Z,13.95
2023-01-01T09:59:02.688Z,13.96
2023-01-01T10:01:56.118Z,13.94
2023-01-01T10:05:01.722Z,13.99
2023-01-01T10:07:30.974Z,13.97
2023-01-01T10:10:32.398Z,14.01
2023-01-01T10:13:20.515Z,14.04
2023-01-01T10:16:08.045Z,14.05
2023-01-01T10:18:38.286Z,14.00
2023-01-01T10:21:46.961Z,13.98
2023-01-01T10:24:27.789Z,13.93
2023-01-01T10:26:55.818Z,13.97
2023-01-01T10:29:53.044Z,13.99
2023-01-01T10:32:28.813Z,14.08
2023-01-01T10:34:56.515Z,14.05
2023-01-01T10:37:23.057Z,14.11
2023-01-01T10:39:50.183Z,14.12
2023-01-01T10:42:16.675Z,14.15
2023-01-01T10:44:43.670Z,14.14
2023-01-01T10:47:33.019Z,14.09
2023-01-01T10:50:07.878Z,14.10
2023-01-01T10:52:40.693Z,14.10
2023-01-01T10:55:21.402Z,14.14
2023-01-01T10:57:47.736Z,14.12
2023-01-01T11:00:26.934Z,14.15
2023-01-01T11:03:14.176Z,14.21
2023-01-01T11:05:40.617Z,14.24
2023-01-01T11:08:18.790Z,14.27
2023-01-01T11:10:51.970Z,14.29
2023-01-01T11:13:20.399Z,14.35
2023-01-01T11:15:47.421Z,14.35
2023-01-01T11:18:19.763Z,14.38
2023-01-01T11:20:55.232Z,14.38
2023-01-01T11:23:30.069Z,14.39
2023-01-01T11:25:59.018Z,14.41
2023-01-01T11:28:26.238Z,14.45
2023-01-01T11:31:12.595Z,14.50
2023-01-01T11:33:52.675Z,14.45
2023-01-01T11:36:24.574Z,14.52
2023-01-01T11:39:07.954Z,14.50
2023-01-01T11:42:00.528Z,14.61
2023-01-01T11:44:40.955Z,14.61
2023-01-01T11:47:19.786Z,14.57
2023-01-01T11:49:52.991Z,14.64
2023-01-01T11:52:38.738Z,14.61
2023-01-01T11:55:27.120Z,14.53
2023-01-01T11:58:11.992Z,14.59
2023-01-01T12:00:41.289Z,14.57
2023-01-01T12:03:39.732Z,14.57
2023-01-01T12:06:15.829Z,14.54
2023-01-01T12:08:46.935Z,14.58
2023-01-01T12:11:34.658Z,14.52
2023-01-01T12:14:32.978Z,14.55
2023-01-01T12:17:33.750Z,14.57
2023-01-01T12:20:21.903Z,14.52
2023-01-01T12:22:48.388Z,14.42
2023-01-01T12:25:18.271Z,14.47
2023-01-01T12:28:12.133Z,14.49
2023-01-01T12:30:51.689Z,14.52
2023-01-01T12:34:15.148Z,14.61
2023-01-01T12:36:53.877Z,14.57
2023-01-01T12:39:55.211Z,14.54
2023-01-01T12:42:42.876Z,14.46
2023-01-01T12:45:50.851Z,14.46
2023-01-01T12:48:41.947Z,14.43
2023-01-01T12:51:42.744Z,14.47
2023-01-01T12:54:46.035Z,14.46
2023-01-01T12:57:15.101Z,14.52
2023-01-01T12:59:47.219Z,14.44
2023-01-01T13:02:20.001Z,14.39
2023-01-01T13:04:49.765Z,14.34
2023-01-01T13:07:25.601Z,14.30
2023-01-01T13:09:53.370Z,14.37
2023-01-01T13:12:24.369Z,14.37
2023-01-01T13:14:51.622Z,14.36
2023-01-01T13:17:21.341Z,14.40
2023-01-01T13:20:13.896Z,14.37
2023-01-01T13:22:43.582Z,14.41
2023-01-01T13:25:10.807Z,14.34
2023-01-01T13:28:04.867Z,14.29
2023-01-01T13:30:37.794Z,14.26
2023-01-01T13:33:36.827Z,14.14
2023-01-01T13:36:09.155Z,14.19
2023-01-01T13:38:51.916Z,14.18
2023-01-01T13:41:36.995Z,14.06
2023-01-01T13:44:03.372Z,14.10
2023-01-01T13:46:51.771Z,14.10
2023-01-01T13:49:55.388Z,14.10
2023-01-01T13:52:36.506Z,14.08
2023-01-01T13:55:29.670Z,13.99
2023-01-01T13:58:32.892Z,13.99
2023-01-01T14:01:23.607Z,13.95
2023-01-01T14:03:55.127Z,13.93
2023-01-01T14:06:35.649Z,13.88
2023-01-01T14:09:15.203Z,13.94
2023-01-01T14:11:42.053Z,13.94
2023-01-01T14:14:24.220Z,13.86
2023-01-01T14:16:52.485Z,13.81
2023-01-01T14:19:20.568Z,13.75
2023-01-01T14:21:47.130Z,13.76
2023-01-01T14:24:18.226Z,13.70
2023-01-01T14:26:45.118Z,13.66
2023-01-01T14:29:19.605Z,13.62
2023-01-01T14:31:46.835Z,13.65
2023-01-01T14:34:28.013Z,13.60
2023-01-01T14:37:00.205Z,13.60
2023-01-01T14:39:29.275Z,13.60
2023-01-01T14:42:00.744Z,13.64
2023-01-01T14:44:35.651Z,13.67
2023-01-01T14:47:04.057Z,13.58
2023-01-01T14:49:34.601Z,13.61
2023-01-01T14:52:06.125Z,13.60
2023-01-01T14:54:38.077Z,13.61
2023-01-01T14:57:12.324Z,13.64
2023-01-01T14:59:46.399Z,13.59
2023-01-01T15:02:20.917Z,13.51
2023-01-01T15:04:48.278Z,13.58
2023-01-01T15:07:30.226Z,13.56
2023-01-01T15:10:02.342Z,13.55
2023-01-01T15:12:29.716Z,13.53
2023-01-01T15:14:57.992Z,13.50
2023-01-01T15:17:26.058Z,13.53
2023-01-01T15:20:19.202Z,13.41
2023-01-01T15:22:45.837Z,13.36
2023-01-01T15:25:14.647Z,13.39
2023-01-01T15:27:44.050Z,13.35
2023-01-01T15:30:29.560Z,13.32
2023-01-01T15:32:56.424Z,13.29
2023-01-01T15:35:32.025Z,13.26
2023-01-01T15:38:10.104Z,13.29
2023-01-01T15:40:36.953Z,13.30
2023-01-01T15:43:03.271Z,13.33
2023-01-01T15:45:36.415Z,13.36
2023-01-01T15:48:05.501Z,13.33
2023-01-01T15:50:50.338Z,13.35
2023-01-01T15:53:23.640Z,13.28
2023-01-01T15:56:00.219Z,13.27
2023-01-01T15:58:34.321Z,13.29
2023-01-01T16:01:05.354Z,13.29
2023-01-01T16:03:34.976Z,13.25
2023-01-01T16:06:01.625Z,13.25
2023-01-01T16:08:27.965Z,13.15
2023-01-01T16:10:54.281Z,13.09
2023-01-01T16:13:20.690Z,13.06
2023-01-01T16:16:01.469Z,12.97
2023-01-01T16:18:38.411Z,13.01
2023-01-01T16:21:05.654Z,12.95
2023-01-01T16:23:32.037Z,12.90
2023-01-01T16:25:58.354Z,12.88
2023-01-01T16:28:24.684Z,12.86
2023-01-01T16:30:52.067Z,12.84
2023-01-01T16:33:22.860Z,12.80
2023-01-01T16:35:50.508Z,12.77
2023-01-01T16:38:18.182Z,12.73
2023-01-01T16:40:44.515Z,12.69
2023-01-01T16:43:18.337Z,12.61
2023-01-01T16:45:45.164Z,12.59
2023-01-01T16:48:11.834Z,12.48
2023-01-01T16:50:38.229Z,12.48
2023-01-01T16:53:04.733Z,12.49
2023-01-01T16:55:31.221Z,12.33
2023-01-01T16:58:21.165Z,12.33
2023-01-01T17:00:43.998Z,12.25
2023-01-01T17:03:10.558Z,12.17
2023-01-01T17:05:43.643Z,12.13
2023-01-01T17:08:10.652Z,11.98
2023-01-01T17:10:36.977Z,11.96
2023-01-01T17:13:03.470Z,11.87
2023-01-01T17:15:31.735Z,11.81
2023-01-01T17:17:58.906Z,11.80
2023-01-01T17:20:26.587Z,11.70
2023-01-01T17:22:53.211Z,11.64
2023-01-01T17:25:19.691Z,11.45
2023-01-01T17:27:46.143Z,11.50
2023-01-01T17:30:13.516Z,11.48
2023-01-01T17:32:40.054Z,11.40
2023-01-01T17:35:07.400Z,11.38
2023-01-01T17:37:33.814Z,11.33
2023-01-01T17:40:00.321Z,11.24
2023-01-01T17:42:26.702Z,11.26
2023-01-01T17:44:53.079Z,11.21
2023-01-01T17:47:19.391Z,11.12
2023-01-01T17:49:48.415Z,11.17
2023-01-01T17:52:14.740Z,11.16
2023-01-01T17:54:41.074Z,11.14
2023-01-01T17:57:09.596Z,11.05
2023-01-01T17:59:35.927Z,11.04
2023-01-01T18:02:02.456Z,11.09
2023-01-01T18:04:29.101Z,11.13
2023-01-01T18:06:58.513Z,11.09
2023-01-01T18:09:28.828Z,11.09
2023-01-01T18:11:55.375Z,11.06
2023-01-01T18:14:24.707Z,10.98
2023-01-01T18:16:51.352Z,10.96
2023-01-01T18:19:17.770Z,10.93
2023-01-01T18:21:44.128Z,11.03
2023-01-01T18:24:15.209Z,11.03
2023-01-01T18:26:42.414Z,10.99
2023-01-01T18:29:08.859Z,10.95
2023-01-01T18:31:35.810Z,10.98
2023-01-01T18:34:04.106Z,10.93
2023-01-01T18:36:33.153Z,10.93
2023-01-01T18:39:01.007Z,10.99
2023-01-01T18:42:01.390Z,10.92
2023-01-01T18:44:32.744Z,10.95
2023-01-01T18:47:12.289Z,10.90
2023-01-01T18:49:39.742Z,10.89
2023-01-01T18:52:06.052Z,10.84
2023-01-01T18:54:33.032Z,10.80
2023-01-01T18:57:05.284Z,10.85
2023-01-01T18:59:32.127Z,10.84
2023-01-01T19:01:58.661Z,10.83
2023-01-01T19:04:25.069Z,10.83
2023-01-01T19:06:51.399Z,10.82
2023-01-01T19:09:23.240Z,10.86
2023-01-01T19:11:52.172Z,10.88
2023-01-01T19:14:20.988Z,10.89
2023-01-01T19:16:48.954Z,10.95
2023-01-01T19:19:24.431Z,10.89
2023-01-01T19:21:57.167Z,10.86
2023-01-01T19:24:26.327Z,10.86
2023-01-01T19:27:16.642Z,10.88
2023-01-01T19:29:45.773Z,10.78
2023-01-01T19:32:12.154Z,10.78
2023-01-01T19:34:39.640Z,10.77
2023-01-01T19:37:09.270Z,10.72
2023-01-01T19:39:35.995Z,10.73
2023-01-01T19:42:05.129Z,10.69
2023-01-01T19:44:32.190Z,10.73
2023-01-01T19:47:00.389Z,10.72
2023-01-01T19:49:27.976Z,10.70
2023-01-01T19:51:55.274Z,10.72
2023-01-01T19:54:21.919Z,10.72
2023-01-01T19:56:49.934Z,10.75
2023-01-01T19:59:16.268Z,10.80
2023-01-01T20:01:42.845Z,10.74
2023-01-01T20:04:09.406Z,10.72
2023-01-01T20:06:36.236Z,10.77
2023-01-01T20:09:03.357Z,10.74
2023-01-01T20:11:31.687Z,10.78
2023-01-01T20:13:58.387Z,10.84
2023-01-01T20:16:25.058Z,10.86
2023-01-01T20:18:51.744Z,10.81
2023-01-01T20:21:38.759Z,10.80
2023-01-01T20:24:05.859Z,10.81
2023-01-01T20:26:32.197Z,10.84
2023-01-01T20:29:33.907Z,10.88
2023-01-01T20:32:00.443Z,10.84
2023-01-01T20:34:26.960Z,10.86
2023-01-01T20:37:11.923Z,10.88
2023-01-01T20:39:38.584Z,10.86
2023-01-01T20:42:05.210Z,10.91
2023-01-01T20:44:31.647Z,10.95
2023-01-01T20:46:58.390Z,10.94
2023-01-01T20:49:24.893Z,10.91
2023-01-01T20:51:53.024Z,10.85
2023-01-01T20:54:23.098Z,10.83
2023-01-01T20:56:50.059Z,10.91
2023-01-01T21:02:04.934Z,10.89
2023-01-01T21:04:31.523Z,10.87
2023-01-01T21:07:00.786Z,10.86
2023-01-01T21:09:27.163Z,10.92
2023-01-01T21:11:53.580Z,11.01
2023-01-01T21:14:23.864Z,11.03
2023-01-01T21:16:51.696Z,11.03
2023-01-01T21:19:26.123Z,11.00
2023-01-01T21:21:55.758Z,11.02
2023-01-01T21:24:34.897Z,11.05
2023-01-01T21:27:13.132Z,11.05
2023-01-01T21:29:52.288Z,11.00
2023-01-01T21:32:28.043Z,11.07
2023-01-01T21:34:55.248Z,11.05
2023-01-01T21:37:45.930Z,11.07
2023-01-01T21:40:35.372Z,11.05
2023-01-01T21:43:01.650Z,11.05
2023-01-01T21:45:32.342Z,11.06
2023-01-01T21:48:10.947Z,11.14
2023-01-01T21:50:41.333Z,11.25
2023-01-01T21:53:15.918Z,11.36
2023-01-01T21:55:53.272Z,11.59
2023-01-01T21:58:50.824Z,11.70
2023-01-01T22:01:20.680Z,11.67
2023-01-01T22:03:55.671Z,11.72
2023-01-01T22:06:22.025Z,11.72
2023-01-01T22:08:48.454Z,11.77
2023-01-01T22:11:32.710Z,11.85
2023-01-01T22:14:01.323Z,11.89
2023-01-01T22:16:29.352Z,11.90
2023-01-01T22:18:56.711Z,11.88
2023-01-01T22:21:23.447Z,11.87
2023-01-01T22:23:55.816Z,11.90
2023-01-01T22:26:27.646Z,11.90
2023-01-01T22:29:01.577Z,11.89
2023-01-01T22:31:33.239Z,11.85
2023-01-01T22:34:01.646Z,11.84
2023-01-01T22:36:30.481Z,11.80
2023-01-01T22:39:12.271Z,11.82
2023-01-01T22:41:39.349Z,11.84
2023-01-01T22:44:06.614Z,11.86
2023-01-01T22:46:39.498Z,11.83
2023-01-01T22:49:30.802Z,11.88
2023-01-01T22:51:58.455Z,11.98
2023-01-01T22:54:24.838Z,12.03
2023-01-01T22:56:51.163Z,12.08
2023-01-01T22:59:17.511Z,12.17
2023-01-01T23:01:43.984Z,12.12
2023-01-01T23:04:10.403Z,12.13
2023-01-01T23:06:37.725Z,12.15
2023-01-01T23:09:04.883Z,12.28
2023-01-01T23:11:31.331Z,12.32
2023-01-01T23:14:16.213Z,12.42
2023-01-01T23:16:42.635Z,12.46
2023-01-01T23:19:09.003Z,12.60
2023-01-01T23:21:36.202Z,12.80
2023-01-01T23:24:06.379Z,12.97
2023-01-01T23:26:34.894Z,13.13
2023-01-01T23:29:02.763Z,13.20
2023-01-01T23:31:31.405Z,13.22
2023-01-01T23:33:58.869Z,13.16
2023-01-01T23:36:27.327Z,13.10
2023-01-01T23:38:54.140Z,13.20
2023-01-01T23:41:20.568Z,13.17
2023-01-01T23:43:46.929Z,13.14
2023-01-01T23:46:14.047Z,13.20
2023-01-01T23:48:43.267Z,13.17
2023-01-01T23:51:09.907Z,13.28
2023-01-01T23:53:36.306Z,13.33
2023-01-01T23:56:02.926Z,13.35
2023-01-01T23:58:29.251Z,13.34
